Time;durP1;ratioP1;P1;durP2;ratioP2;P2;SDS_P1;SDS_P2;PMS_P1;PMS_P2;Temp;Humidity;BMP_temperature;BMP_pressure;BME280_temperature;BME280_humidity;BME280_pressure;Samples;Min_cycle;Max_cycle;Signal;HPM_P1;HPM_P2
2021/01/22 00:00:58;;;;;;;3.17;0.88;;;9.60;99.90;;;;;;4947252;28;20167;-71
2021/01/22 00:03:24;;;;;;;3.08;0.82;;;9.60;99.90;;;;;;4934974;28;20091;-72
2021/01/22 00:05:51;;;;;;;3.17;0.80;;;9.60;99.90;;;;;;4930945;29;20044;-72
2021/01/22 00:08:18;;;;;;;5.13;1.17;;;9.60;99.90;;;;;;4928604;29;20060;-72
2021/01/22 00:10:44;;;;;;;2.05;0.82;;;9.60;99.90;;;;;;4928197;29;20135;-71
2021/01/22 00:13:10;;;;;;;5.15;1.02;;;9.60;99.90;;;;;;4932422;29;20467;-71
2021/01/22 00:15:37;;;;;;;2.30;0.93;;;9.50;99.90;;;;;;4929559;29;20150;-71
2021/01/22 00:18:03;;;;;;;2.65;0.80;;;9.30;99.90;;;;;;4929969;29;20118;-71
2021/01/22 00:20:30;;;;;;;5.00;0.88;;;9.30;99.90;;;;;;4931200;29;20059;-72
2021/01/22 00:22:56;;;;;;;2.78;0.70;;;9.20;99.90;;;;;;4931852;29;20050;-71
2021/01/22 00:25:23;;;;;;;3.25;0.80;;;9.30;99.90;;;;;;4930269;29;20240;-71
2021/01/22 00:27:49;;;;;;;2.50;0.70;;;9.30;99.90;;;;;;4930844;29;20051;-71
2021/01/22 00:30:16;;;;;;;2.53;0.65;;;9.10;99.90;;;;;;4930834;29;20075;-71
2021/01/22 00:32:42;;;;;;;6.90;0.60;;;9.10;99.90;;;;;;4923548;29;20083;-71
2021/01/22 00:35:09;;;;;;;4.82;0.80;;;9.00;99.90;;;;;;4927988;29;20151;-72
2021/01/22 00:37:35;;;;;;;2.08;0.50;;;9.00;99.90;;;;;;4921265;29;20231;-72
2021/01/22 00:40:04;;;;;;;3.15;0.50;;;8.90;99.90;;;;;;4913144;29;20169;-72
2021/01/22 00:42:31;;;;;;;1.55;0.55;;;9.00;99.90;;;;;;4927316;29;20064;-72
2021/01/22 00:44:57;;;;;;;2.17;0.82;;;9.00;99.90;;;;;;4927663;29;20071;-72
2021/01/22 00:47:23;;;;;;;3.58;0.80;;;8.90;99.90;;;;;;4929284;29;20150;-72
2021/01/22 00:49:50;;;;;;;1.88;0.50;;;8.80;99.90;;;;;;4927540;29;20554;-71
2021/01/22 00:52:17;;;;;;;2.08;0.80;;;8.90;99.90;;;;;;4929965;29;20048;-72
2021/01/22 00:54:43;;;;;;;2.67;0.57;;;8.90;99.90;;;;;;4923431;29;20083;-71
2021/01/22 00:57:09;;;;;;;3.40;0.50;;;8.90;99.90;;;;;;4927929;29;20079;-71
2021/01/22 00:59:37;;;;;;;4.45;0.47;;;9.00;99.90;;;;;;4923056;29;20062;-72
2021/01/22 01:02:03;;;;;;;3.25;0.70;;;9.00;99.90;;;;;;4922577;29;20086;-71
2021/01/22 01:04:30;;;;;;;3.05;0.65;;;9.00;99.90;;;;;;4920284;29;20062;-71
2021/01/22 01:06:56;;;;;;;4.78;0.70;;;9.00;99.90;;;;;;4922905;29;20056;-71
2021/01/22 01:09:22;;;;;;;2.58;0.60;;;9.00;99.90;;;;;;4934537;29;20059;-71
2021/01/22 01:11:48;;;;;;;1.52;0.70;;;9.10;99.90;;;;;;4932875;29;20130;-71
2021/01/22 01:14:15;;;;;;;1.83;0.52;;;9.10;99.90;;;;;;4933078;29;20165;-71
2021/01/22 01:16:41;;;;;;;3.13;0.63;;;9.10;99.90;;;;;;4933230;29;20143;-72
2021/01/22 01:19:08;;;;;;;1.67;0.57;;;9.10;99.90;;;;;;4917333;29;20075;-71
2021/01/22 01:21:34;;;;;;;2.85;0.80;;;9.10;99.90;;;;;;4934204;29;20138;-71
2021/01/22 01:24:01;;;;;;;1.90;0.60;;;9.10;99.90;;;;;;4931624;29;20487;-71
2021/01/22 01:26:28;;;;;;;2.08;0.50;;;9.10;99.90;;;;;;4934551;29;20093;-71
2021/01/22 01:28:54;;;;;;;2.00;0.60;;;9.10;99.90;;;;;;4935327;29;20048;-71
2021/01/22 01:31:20;;;;;;;3.28;1.63;;;9.10;99.90;;;;;;4935440;29;20044;-71
2021/01/22 01:33:47;;;;;;;6.53;0.90;;;9.00;99.90;;;;;;4934146;29;20043;-71
2021/01/22 01:36:13;;;;;;;4.80;0.70;;;9.00;99.90;;;;;;4935244;29;20052;-71
2021/01/22 01:38:41;;;;;;;5.43;1.42;;;9.00;99.90;;;;;;4935151;29;20051;-71
2021/01/22 01:41:07;;;;;;;2.90;0.70;;;9.00;99.90;;;;;;4935741;29;20083;-72
2021/01/22 01:43:34;;;;;;;4.35;0.60;;;9.00;99.90;;;;;;4934609;29;20546;-71
2021/01/22 01:46:01;;;;;;;4.40;0.80;;;9.00;99.90;;;;;;4935333;29;20052;-72
2021/01/22 01:48:28;;;;;;;5.55;0.70;;;9.00;99.90;;;;;;4933685;29;20521;-72
2021/01/22 01:50:55;;;;;;;5.63;1.20;;;9.00;99.90;;;;;;4929279;29;20473;-72
2021/01/22 01:53:23;;;;;;;7.22;1.25;;;9.00;99.90;;;;;;4934732;29;20423;-72
2021/01/22 01:55:49;;;;;;;6.05;1.52;;;9.10;99.90;;;;;;4934545;29;20482;-72
2021/01/22 01:58:15;;;;;;;10.95;0.90;;;9.10;99.90;;;;;;4932340;29;20107;-72
2021/01/22 02:00:42;;;;;;;8.65;1.27;;;9.20;99.90;;;;;;4949507;28;20241;-71
2021/01/22 02:03:09;;;;;;;6.35;0.88;;;9.20;99.90;;;;;;4935159;29;20091;-72
2021/01/22 02:05:35;;;;;;;6.88;1.10;;;9.20;99.90;;;;;;4934502;29;20052;-72
2021/01/22 02:08:02;;;;;;;5.63;0.90;;;9.10;99.90;;;;;;4939818;28;20083;-72
2021/01/22 02:10:30;;;;;;;6.63;1.23;;;9.00;99.90;;;;;;4934444;29;20154;-73
2021/01/22 02:12:57;;;;;;;6.57;1.13;;;9.00;99.90;;;;;;4937224;29;20178;-72
2021/01/22 02:15:24;;;;;;;4.93;0.80;;;8.90;99.90;;;;;;4934674;29;20136;-71
2021/01/22 02:17:51;;;;;;;6.75;1.02;;;9.00;99.90;;;;;;4930199;29;20044;-72
2021/01/22 02:20:24;;;;;;;4.35;1.00;;;9.10;99.90;;;;;;4934476;29;20059;-72
2021/01/22 02:22:52;;;;;;;7.57;1.30;;;9.20;99.90;;;;;;4933787;29;20040;-72
2021/01/22 02:25:24;;;;;;;8.77;0.90;;;9.30;99.90;;;;;;4947769;28;20102;-73
2021/01/22 02:27:51;;;;;;;4.20;1.23;;;9.30;99.90;;;;;;4933127;29;20170;-71
2021/01/22 02:30:18;;;;;;;3.20;0.77;;;9.30;99.90;;;;;;4944504;29;20126;-71
2021/01/22 02:32:46;;;;;;;5.30;0.80;;;9.30;99.90;;;;;;4935100;28;20056;-71
2021/01/22 02:35:16;;;;;;;5.28;1.10;;;9.40;99.90;;;;;;4951390;28;20051;-72
2021/01/22 02:37:44;;;;;;;2.60;0.70;;;9.40;99.90;;;;;;4933633;29;20126;-71
2021/01/22 02:40:12;;;;;;;3.25;0.68;;;9.40;99.90;;;;;;4945861;28;20126;-72
2021/01/22 02:42:41;;;;;;;3.70;0.60;;;9.40;99.90;;;;;;4933213;29;20213;-72
2021/01/22 02:45:10;;;;;;;8.35;0.80;;;9.50;99.90;;;;;;4931956;29;20039;-72
2021/01/22 02:47:43;;;;;;;4.13;1.00;;;9.50;99.90;;;;;;4939930;29;20130;-72
2021/01/22 02:50:11;;;;;;;3.85;0.80;;;9.50;99.90;;;;;;4936587;28;20079;-72
2021/01/22 02:52:37;;;;;;;6.38;0.93;;;9.40;99.90;;;;;;4932387;29;20039;-73
2021/01/22 02:55:05;;;;;;;10.20;1.10;;;9.50;99.90;;;;;;4938202;29;20407;-72
2021/01/22 02:57:52;;;;;;;7.53;1.05;;;9.50;99.90;;;;;;4937114;28;20214;-72
2021/01/22 03:00:28;;;;;;;5.53;0.90;;;9.30;99.90;;;;;;4932924;29;20098;-72
2021/01/22 03:02:57;;;;;;;5.25;0.80;;;9.20;99.90;;;;;;4937035;29;20047;-72
2021/01/22 03:05:30;;;;;;;6.97;0.90;;;9.10;99.90;;;;;;4940295;29;20528;-72
2021/01/22 03:08:12;;;;;;;5.65;1.48;;;9.00;99.90;;;;;;4937388;28;20142;-72
2021/01/22 03:10:39;;;;;;;6.80;0.83;;;9.10;99.90;;;;;;4935185;28;20048;-72
2021/01/22 03:13:07;;;;;;;7.97;1.65;;;9.10;99.90;;;;;;4937590;29;20574;-72
2021/01/22 03:15:35;;;;;;;11.20;1.40;;;9.10;99.90;;;;;;4933665;28;20079;-72
2021/01/22 03:18:14;;;;;;;7.32;0.88;;;9.10;99.90;;;;;;4928569;29;20587;-72
2021/01/22 03:20:42;;;;;;;8.52;1.05;;;9.00;99.90;;;;;;4943622;29;20067;-72
2021/01/22 03:23:11;;;;;;;6.85;0.80;;;9.00;99.90;;;;;;4933642;29;20083;-72
2021/01/22 03:25:37;;;;;;;7.85;0.82;;;8.90;99.90;;;;;;4937273;29;20050;-71
2021/01/22 03:28:09;;;;;;;8.73;1.55;;;8.80;99.90;;;;;;4932928;29;20107;-72
2021/01/22 03:30:36;;;;;;;5.68;0.95;;;8.80;99.90;;;;;;4932523;29;20190;-72
2021/01/22 03:33:03;;;;;;;8.27;0.77;;;8.90;99.90;;;;;;4934033;29;20044;-72
2021/01/22 03:35:30;;;;;;;4.97;1.35;;;8.90;99.90;;;;;;4939509;29;20131;-72
2021/01/22 03:37:58;;;;;;;10.35;1.40;;;8.90;99.90;;;;;;4938953;28;20087;-72
2021/01/22 03:40:25;;;;;;;7.80;0.82;;;8.90;99.90;;;;;;4933053;29;20133;-72
2021/01/22 03:42:51;;;;;;;4.70;0.88;;;8.80;99.90;;;;;;4933495;29;20074;-73
2021/01/22 03:45:18;;;;;;;9.68;1.20;;;8.70;99.90;;;;;;4932138;29;20422;-72
2021/01/22 03:47:45;;;;;;;7.25;1.10;;;8.60;99.90;;;;;;4931376;29;20051;-72
2021/01/22 03:50:12;;;;;;;7.05;1.20;;;8.50;99.90;;;;;;4934770;29;20055;-72
2021/01/22 03:52:39;;;;;;;5.40;0.80;;;8.60;99.90;;;;;;4947226;28;20083;-72
2021/01/22 03:55:07;;;;;;;12.60;1.73;;;8.60;99.90;;;;;;4932461;29;20402;-72
2021/01/22 03:57:33;;;;;;;5.03;0.73;;;8.50;99.90;;;;;;4931508;29;20528;-72
2021/01/22 04:00:02;;;;;;;4.22;0.75;;;8.40;99.90;;;;;;4933454;29;20086;-72
2021/01/22 04:02:29;;;;;;;5.30;0.77;;;8.30;99.90;;;;;;4930321;29;20067;-72
2021/01/22 04:04:55;;;;;;;6.93;1.10;;;8.30;99.90;;;;;;4932943;29;20497;-72
2021/01/22 04:07:21;;;;;;;4.07;0.93;;;8.20;99.90;;;;;;4932282;29;20099;-72
2021/01/22 04:09:48;;;;;;;8.05;1.23;;;8.10;99.90;;;;;;4932466;29;20147;-72
2021/01/22 04:12:14;;;;;;;9.55;1.48;;;8.10;99.90;;;;;;4932458;29;20154;-72
2021/01/22 04:14:40;;;;;;;6.10;0.70;;;8.10;99.90;;;;;;4932062;29;20079;-72
2021/01/22 04:17:06;;;;;;;7.90;0.77;;;8.00;99.90;;;;;;4947030;28;20245;-72
2021/01/22 04:19:33;;;;;;;6.20;0.85;;;8.00;99.90;;;;;;4936260;28;20047;-73
2021/01/22 04:21:59;;;;;;;8.05;1.30;;;7.90;99.90;;;;;;4932246;29;20554;-72
2021/01/22 04:24:27;;;;;;;9.15;1.15;;;7.90;99.90;;;;;;4945189;29;20484;-72
2021/01/22 04:26:53;;;;;;;9.00;0.90;;;7.90;99.90;;;;;;4927414;29;20111;-72
2021/01/22 04:29:19;;;;;;;5.82;0.75;;;7.90;99.90;;;;;;4927477;29;20063;-72
2021/01/22 04:31:46;;;;;;;5.90;0.65;;;7.80;99.90;;;;;;4912683;29;20455;-72
2021/01/22 04:34:12;;;;;;;3.33;0.68;;;7.90;99.90;;;;;;4929927;29;20044;-72
2021/01/22 04:36:39;;;;;;;5.25;0.60;;;8.00;99.90;;;;;;4926797;29;20119;-72
2021/01/22 04:39:06;;;;;;;6.57;0.95;;;8.00;99.90;;;;;;4928096;29;20063;-72
2021/01/22 04:41:33;;;;;;;7.47;0.60;;;8.10;99.90;;;;;;4933034;29;20047;-72
2021/01/22 04:44:00;;;;;;;6.80;1.48;;;8.10;99.90;;;;;;4939508;29;20084;-72
2021/01/22 04:46:31;;;;;;;8.82;0.77;;;8.10;99.90;;;;;;4938088;29;20118;-71
2021/01/22 04:48:59;;;;;;;3.38;0.55;;;8.00;99.90;;;;;;4930327;29;20075;-72
2021/01/22 04:51:29;;;;;;;5.85;0.70;;;8.00;99.90;;;;;;4929691;29;20557;-72
2021/01/22 04:54:07;;;;;;;7.13;0.90;;;8.10;99.90;;;;;;4936331;28;20079;-72
2021/01/22 04:56:37;;;;;;;3.97;0.85;;;8.10;99.90;;;;;;4937650;29;20051;-72
2021/01/22 04:59:09;;;;;;;5.07;0.75;;;8.00;99.90;;;;;;4937464;29;20182;-71
2021/01/22 05:01:36;;;;;;;5.28;0.75;;;8.00;99.90;;;;;;4947203;28;20055;-72
2021/01/22 05:04:03;;;;;;;3.33;0.73;;;8.00;99.90;;;;;;4940566;28;20514;-72
2021/01/22 05:06:29;;;;;;;9.30;1.13;;;8.10;99.90;;;;;;4931147;28;20130;-74
2021/01/22 05:08:56;;;;;;;6.15;1.10;;;8.00;99.90;;;;;;4930423;29;20509;-72
2021/01/22 05:11:23;;;;;;;3.38;0.60;;;8.00;99.90;;;;;;4929501;29;20510;-72
2021/01/22 05:13:49;;;;;;;7.30;1.27;;;8.10;99.90;;;;;;4931859;29;20471;-72
2021/01/22 05:16:16;;;;;;;5.10;0.80;;;8.10;99.90;;;;;;4929226;29;20068;-72
2021/01/22 05:18:43;;;;;;;3.05;0.50;;;8.00;99.90;;;;;;4929104;29;20135;-72
2021/01/22 05:21:11;;;;;;;7.15;0.88;;;8.00;99.90;;;;;;4931886;29;20079;-72
2021/01/22 05:23:38;;;;;;;6.13;0.82;;;8.00;99.90;;;;;;4937614;29;20179;-72
2021/01/22 05:26:14;;;;;;;3.90;0.80;;;8.10;99.90;;;;;;4939391;29;20443;-72
2021/01/22 05:28:46;;;;;;;7.80;1.00;;;8.10;99.90;;;;;;4932154;29;20051;-72
2021/01/22 05:31:15;;;;;;;6.10;0.90;;;8.10;99.90;;;;;;4929954;29;20469;-72
2021/01/22 05:33:54;;;;;;;6.65;0.90;;;8.00;99.90;;;;;;4944151;29;20071;-72
2021/01/22 05:36:25;;;;;;;3.03;0.50;;;8.00;99.90;;;;;;4915550;29;20116;-72
2021/01/22 05:38:54;;;;;;;3.53;0.77;;;7.90;99.90;;;;;;4942686;28;20526;-72
2021/01/22 05:41:20;;;;;;;5.63;0.60;;;8.00;99.90;;;;;;4932617;29;20534;-71
2021/01/22 05:43:49;;;;;;;3.60;0.60;;;8.10;99.90;;;;;;4942718;28;20055;-72
2021/01/22 05:46:17;;;;;;;7.10;1.40;;;8.10;99.90;;;;;;4931564;29;20133;-73
2021/01/22 05:48:44;;;;;;;2.08;0.55;;;8.10;99.90;;;;;;4930250;29;20541;-73
2021/01/22 05:51:14;;;;;;;10.48;1.38;;;8.00;99.90;;;;;;4932299;29;20118;-72
2021/01/22 05:53:48;;;;;;;4.10;1.27;;;8.00;99.90;;;;;;4935298;29;20044;-72
2021/01/22 05:56:15;;;;;;;5.75;0.70;;;8.00;99.90;;;;;;4933870;29;20063;-72
2021/01/22 05:58:44;;;;;;;6.30;0.50;;;8.00;99.90;;;;;;4943535;29;20114;-72
2021/01/22 06:01:21;;;;;;;2.13;0.60;;;8.00;99.90;;;;;;4940717;28;20122;-72
2021/01/22 06:03:50;;;;;;;2.00;0.60;;;7.90;99.90;;;;;;4947939;29;20051;-72
2021/01/22 06:06:18;;;;;;;6.72;1.20;;;7.80;99.90;;;;;;4935874;28;20047;-72
2021/01/22 06:08:48;;;;;;;4.55;0.60;;;7.80;99.90;;;;;;4934084;29;20071;-71
2021/01/22 06:11:17;;;;;;;3.38;0.65;;;8.00;99.90;;;;;;4930448;29;20052;-72
2021/01/22 06:13:49;;;;;;;2.90;0.50;;;8.00;99.90;;;;;;4931995;29;20566;-72
2021/01/22 06:16:18;;;;;;;4.22;0.90;;;8.00;99.90;;;;;;4933016;29;20086;-72
2021/01/22 06:19:01;;;;;;;10.30;1.15;;;7.90;99.90;;;;;;4938733;29;20113;-72
2021/01/22 06:21:39;;;;;;;4.10;1.05;;;7.90;99.90;;;;;;4948723;29;20051;-72
2021/01/22 06:24:07;;;;;;;7.70;1.35;;;7.90;99.90;;;;;;4936487;29;20054;-72
2021/01/22 06:26:38;;;;;;;5.18;1.13;;;7.80;99.90;;;;;;4940511;28;20051;-72
2021/01/22 06:29:06;;;;;;;8.10;1.08;;;7.80;99.90;;;;;;4933972;29;20533;-71
2021/01/22 06:31:33;;;;;;;3.90;0.98;;;7.80;99.90;;;;;;4936577;29;20142;-72
2021/01/22 06:34:01;;;;;;;6.47;0.95;;;7.70;99.90;;;;;;4936741;29;20055;-72
2021/01/22 06:36:27;;;;;;;4.63;1.20;;;7.60;99.90;;;;;;4941499;28;20047;-72
2021/01/22 06:38:55;;;;;;;8.65;1.20;;;7.70;99.90;;;;;;4942200;28;20466;-72
2021/01/22 06:41:25;;;;;;;6.20;1.42;;;7.60;99.90;;;;;;4952819;29;20059;-72
2021/01/22 06:43:53;;;;;;;7.85;0.90;;;7.60;99.90;;;;;;4945299;28;20580;-72
2021/01/22 06:46:24;;;;;;;5.40;1.02;;;7.60;99.90;;;;;;4933396;29;20467;-73
2021/01/22 06:48:52;;;;;;;8.82;1.20;;;7.70;99.90;;;;;;4931886;29;20175;-72
2021/01/22 06:51:19;;;;;;;7.32;0.85;;;7.70;99.90;;;;;;4934094;29;20110;-72
2021/01/22 06:54:08;;;;;;;12.75;1.83;;;7.70;99.90;;;;;;4939529;29;20102;-72
2021/01/22 06:56:54;;;;;;;10.25;1.00;;;7.70;99.90;;;;;;4933038;29;20051;-72
2021/01/22 06:59:21;;;;;;;7.80;1.08;;;7.70;99.90;;;;;;4932014;29;20574;-72
2021/01/22 07:01:49;;;;;;;5.78;0.85;;;7.80;99.90;;;;;;4932975;29;20139;-72
2021/01/22 07:04:30;;;;;;;11.85;1.65;;;7.80;99.90;;;;;;4928683;29;20048;-72
2021/01/22 07:07:02;;;;;;;10.43;1.15;;;7.80;99.90;;;;;;4928042;29;20352;-72
2021/01/22 07:09:47;;;;;;;10.18;1.48;;;7.70;99.90;;;;;;4932077;29;20139;-72
2021/01/22 07:12:15;;;;;;;5.82;0.98;;;7.80;99.90;;;;;;4932496;29;20044;-72
2021/01/22 07:14:44;;;;;;;8.50;0.82;;;7.70;99.90;;;;;;4946336;29;20119;-72
2021/01/22 07:17:21;;;;;;;6.78;1.17;;;7.60;99.90;;;;;;4931850;28;20094;-72
2021/01/22 07:20:01;;;;;;;6.45;1.10;;;7.60;99.90;;;;;;4931839;29;20074;-72
2021/01/22 07:22:30;;;;;;;7.45;1.40;;;7.60;99.90;;;;;;4932934;29;20069;-72
2021/01/22 07:25:02;;;;;;;11.52;1.75;;;7.60;99.90;;;;;;4932866;29;20348;-72
2021/01/22 07:27:45;;;;;;;10.32;1.60;;;7.60;99.90;;;;;;4933441;29;20054;-73
2021/01/22 07:30:16;;;;;;;6.53;1.58;;;7.60;99.90;;;;;;4931062;28;20111;-72
2021/01/22 07:32:45;;;;;;;8.70;1.25;;;7.70;99.90;;;;;;4936983;29;20099;-72
2021/01/22 07:35:22;;;;;;;8.82;1.60;;;7.70;99.90;;;;;;4931012;29;20043;-72
2021/01/22 07:37:49;;;;;;;10.98;1.40;;;7.60;99.90;;;;;;4931714;29;20055;-72
2021/01/22 07:40:18;;;;;;;11.15;2.28;;;7.60;99.90;;;;;;4946930;28;20051;-72
2021/01/22 07:42:47;;;;;;;10.60;2.15;;;7.60;99.90;;;;;;4917401;29;20446;-72
2021/01/22 07:45:15;;;;;;;20.30;2.28;;;7.70;99.90;;;;;;4931580;29;20084;-72
2021/01/22 07:47:46;;;;;;;14.98;1.73;;;7.70;99.90;;;;;;4931738;29;20692;-73
2021/01/22 07:50:18;;;;;;;9.95;1.42;;;7.70;99.90;;;;;;4932658;29;20059;-72
2021/01/22 07:52:49;;;;;;;9.77;1.50;;;7.60;99.90;;;;;;4930975;29;20112;-72
2021/01/22 07:55:18;;;;;;;10.90;1.45;;;7.70;99.90;;;;;;4930589;29;20052;-72
2021/01/22 07:57:45;;;;;;;6.78;1.23;;;7.80;99.90;;;;;;4930289;29;20166;-72
2021/01/22 08:00:15;;;;;;;14.60;1.70;;;7.90;99.90;;;;;;4940656;28;20051;-72
2021/01/22 08:02:58;;;;;;;15.45;1.38;;;7.90;99.90;;;;;;4931853;29;20134;-72
2021/01/22 08:05:35;;;;;;;16.23;2.97;;;7.90;99.90;;;;;;4930215;29;20158;-72
2021/01/22 08:08:18;;;;;;;11.65;1.52;;;7.90;99.90;;;;;;4932761;29;20066;-73
2021/01/22 08:10:46;;;;;;;9.35;1.73;;;8.00;99.90;;;;;;4950971;28;20051;-73
2021/01/22 08:13:14;;;;;;;11.05;1.60;;;8.00;99.90;;;;;;4928957;29;20126;-73
2021/01/22 08:15:40;;;;;;;13.27;1.58;;;8.00;99.90;;;;;;4930832;28;20467;-73
2021/01/22 08:18:07;;;;;;;8.50;1.58;;;7.90;99.90;;;;;;4927731;29;20075;-72
2021/01/22 08:20:34;;;;;;;16.98;1.42;;;7.90;99.90;;;;;;4934303;29;20052;-73
2021/01/22 08:23:01;;;;;;;6.90;1.00;;;7.80;99.90;;;;;;4933195;29;20438;-73
2021/01/22 08:25:36;;;;;;;3.28;0.85;;;7.70;99.90;;;;;;4931585;29;20103;-72
2021/01/22 08:28:05;;;;;;;3.63;0.55;;;7.50;99.90;;;;;;4944890;28;20125;-72
2021/01/22 08:30:33;;;;;;;3.38;0.50;;;7.30;99.90;;;;;;4931431;28;20200;-72
2021/01/22 08:33:00;;;;;;;1.20;0.50;;;7.10;99.90;;;;;;4930353;29;20102;-73
2021/01/22 08:35:29;;;;;;;1.95;0.43;;;7.00;99.90;;;;;;4928819;29;20426;-72
2021/01/22 08:37:57;;;;;;;1.50;0.77;;;6.90;99.90;;;;;;4929750;29;20122;-72
2021/01/22 08:40:36;;;;;;;3.20;0.75;;;6.80;99.90;;;;;;4931686;29;20482;-72
2021/01/22 08:43:06;;;;;;;0.38;0.25;;;6.70;99.90;;;;;;4931882;29;20051;-72
2021/01/22 08:45:33;;;;;;;0.88;0.30;;;6.50;99.90;;;;;;4933368;29;20101;-72
2021/01/22 08:47:59;;;;;;;0.30;0.20;;;6.20;99.90;;;;;;4930564;29;20048;-72
2021/01/22 08:50:27;;;;;;;0.75;0.30;;;6.00;99.90;;;;;;4929501;29;20044;-72
2021/01/22 08:53:09;;;;;;;2.08;0.40;;;5.80;99.90;;;;;;4931662;29;20102;-72
2021/01/22 08:55:40;;;;;;;2.22;0.30;;;5.60;99.90;;;;;;4931561;29;20052;-72
2021/01/22 08:58:10;;;;;;;0.68;0.30;;;5.40;99.90;;;;;;4929057;29;20180;-72
2021/01/22 09:00:39;;;;;;;0.63;0.30;;;5.20;99.90;;;;;;4926902;29;20039;-72
2021/01/22 09:03:19;;;;;;;0.52;0.30;;;5.20;99.90;;;;;;4934239;29;20094;-72
2021/01/22 09:05:53;;;;;;;1.85;0.40;;;5.10;99.90;;;;;;4932096;29;20074;-72
2021/01/22 09:08:21;;;;;;;0.68;0.28;;;5.00;99.90;;;;;;4930620;29;20087;-72
2021/01/22 09:10:49;;;;;;;0.57;0.28;;;5.00;99.90;;;;;;4926598;29;20048;-71
2021/01/22 09:13:20;;;;;;;1.02;0.20;;;4.80;99.90;;;;;;4937111;29;20047;-71
2021/01/22 09:15:49;;;;;;;1.05;0.30;;;4.60;99.90;;;;;;4931302;29;20043;-71
2021/01/22 09:18:21;;;;;;;0.82;0.30;;;4.50;99.90;;;;;;4929093;29;20114;-72
2021/01/22 09:21:02;;;;;;;1.67;0.30;;;4.40;99.90;;;;;;4930245;29;20047;-72
2021/01/22 09:23:29;;;;;;;1.25;0.30;;;4.40;99.90;;;;;;4928964;29;20060;-72
2021/01/22 09:25:56;;;;;;;0.50;0.30;;;4.30;99.90;;;;;;4931293;29;20102;-72
2021/01/22 09:28:23;;;;;;;0.52;0.20;;;4.30;99.90;;;;;;4932674;29;20130;-71
2021/01/22 09:30:50;;;;;;;1.25;0.30;;;4.20;99.90;;;;;;4934858;29;20498;-71
2021/01/22 09:33:17;;;;;;;0.85;0.40;;;4.20;99.90;;;;;;4938093;29;20157;-72
2021/01/22 09:35:43;;;;;;;0.73;0.38;;;4.10;99.90;;;;;;4934279;29;20091;-72
2021/01/22 09:38:10;;;;;;;0.60;0.30;;;4.00;99.90;;;;;;4936660;28;20067;-71
2021/01/22 09:40:36;;;;;;;0.30;0.22;;;3.90;99.90;;;;;;4933297;29;20047;-71
2021/01/22 09:43:03;;;;;;;0.35;0.20;;;3.80;99.90;;;;;;4933485;29;20055;-72
2021/01/22 09:45:30;;;;;;;1.65;0.30;;;3.60;99.90;;;;;;4949542;28;20118;-72
2021/01/22 09:47:57;;;;;;;0.50;0.20;;;3.70;99.90;;;;;;4933688;29;20103;-71
2021/01/22 09:50:26;;;;;;;0.20;0.20;;;3.70;99.90;;;;;;4934579;29;20058;-71
2021/01/22 09:52:53;;;;;;;0.20;0.20;;;3.50;99.90;;;;;;4934370;29;20043;-71
2021/01/22 09:55:19;;;;;;;0.20;0.20;;;3.40;99.90;;;;;;4933432;29;20151;-71
2021/01/22 09:57:46;;;;;;;1.13;0.20;;;3.50;99.90;;;;;;4939470;28;20123;-71
2021/01/22 10:00:14;;;;;;;0.75;0.30;;;3.40;99.90;;;;;;4933273;29;20235;-72
2021/01/22 10:02:42;;;;;;;0.93;0.20;;;3.50;99.90;;;;;;4927285;29;20835;-71
2021/01/22 10:05:09;;;;;;;0.77;0.30;;;3.50;99.90;;;;;;4945175;28;20071;-72
2021/01/22 10:07:36;;;;;;;0.47;0.28;;;3.50;99.90;;;;;;4929751;29;20160;-72
2021/01/22 10:10:04;;;;;;;0.52;0.30;;;3.60;99.90;;;;;;4933350;29;20087;-71
2021/01/22 10:12:31;;;;;;;0.38;0.30;;;3.60;99.90;;;;;;4932630;29;20453;-72
2021/01/22 10:14:57;;;;;;;10.63;0.73;;;3.40;99.90;;;;;;4928480;29;20067;-70
2021/01/22 10:17:24;;;;;;;0.47;0.30;;;3.40;99.90;;;;;;4934606;29;20134;-71
2021/01/22 10:19:50;;;;;;;0.73;0.40;;;3.40;99.90;;;;;;4932389;29;20044;-71
2021/01/22 10:22:17;;;;;;;1.05;0.32;;;3.40;99.90;;;;;;4931306;29;20507;-71
2021/01/22 10:24:43;;;;;;;0.65;0.30;;;3.30;99.90;;;;;;4933115;29;20066;-71
2021/01/22 10:27:10;;;;;;;0.40;0.30;;;3.40;99.90;;;;;;4933241;29;20106;-72
2021/01/22 10:29:36;;;;;;;1.85;0.30;;;3.30;99.90;;;;;;4931557;29;20067;-71
2021/01/22 10:32:03;;;;;;;2.38;0.30;;;3.30;99.90;;;;;;4933115;29;20091;-71
2021/01/22 10:34:29;;;;;;;1.73;0.22;;;3.30;99.90;;;;;;4931682;29;20134;-71
2021/01/22 10:36:56;;;;;;;1.38;0.25;;;3.30;99.90;;;;;;4942319;28;20099;-71
2021/01/22 10:39:22;;;;;;;1.55;0.20;;;3.20;99.90;;;;;;4932750;29;20056;-71
2021/01/22 10:41:48;;;;;;;0.63;0.20;;;3.20;99.90;;;;;;4928538;29;20051;-71
2021/01/22 10:44:15;;;;;;;0.80;0.20;;;3.30;99.90;;;;;;4930502;29;20059;-71
2021/01/22 10:46:42;;;;;;;1.75;0.20;;;3.40;99.90;;;;;;4932479;29;20485;-71
2021/01/22 10:49:09;;;;;;;0.40;0.30;;;3.40;99.90;;;;;;4952317;28;20554;-71
2021/01/22 10:51:35;;;;;;;0.25;0.25;;;3.50;99.90;;;;;;4932117;29;20450;-72
2021/01/22 10:54:02;;;;;;;0.60;0.30;;;3.50;99.90;;;;;;4932859;29;20519;-71
2021/01/22 10:56:28;;;;;;;0.68;0.30;;;3.50;99.90;;;;;;4932064;29;20075;-71
2021/01/22 10:58:55;;;;;;;1.52;0.30;;;3.40;99.90;;;;;;4932435;29;20138;-71
2021/01/22 11:01:21;;;;;;;2.58;0.73;;;3.40;99.90;;;;;;4932897;29;20106;-71
2021/01/22 11:03:48;;;;;;;0.30;0.20;;;3.60;99.90;;;;;;4934287;29;20054;-71
2021/01/22 11:06:14;;;;;;;0.95;0.40;;;3.40;99.90;;;;;;4932683;29;20134;-72
2021/01/22 11:08:41;;;;;;;1.77;0.40;;;3.40;99.90;;;;;;4933262;29;20048;-71
2021/01/22 11:11:08;;;;;;;0.28;0.25;;;3.50;99.90;;;;;;4930147;29;20055;-72
2021/01/22 11:13:35;;;;;;;0.40;0.30;;;3.60;99.90;;;;;;4929457;29;20075;-72
2021/01/22 11:16:01;;;;;;;0.45;0.30;;;3.70;99.90;;;;;;4929112;29;20054;-72
2021/01/22 11:18:27;;;;;;;0.65;0.40;;;3.70;99.90;;;;;;4930525;29;20044;-72
2021/01/22 11:20:54;;;;;;;0.30;0.30;;;3.50;99.90;;;;;;4929817;29;20095;-72
2021/01/22 11:23:21;;;;;;;0.65;0.25;;;3.50;99.90;;;;;;4930473;29;20400;-71
2021/01/22 11:25:47;;;;;;;0.82;0.35;;;3.60;99.90;;;;;;4942651;29;20594;-72
2021/01/22 11:28:13;;;;;;;1.05;0.38;;;3.40;99.90;;;;;;4926759;29;20557;-71
2021/01/22 11:30:40;;;;;;;0.38;0.20;;;3.50;99.90;;;;;;4946012;29;20166;-71
2021/01/22 11:33:06;;;;;;;0.57;0.25;;;3.40;99.90;;;;;;4924142;29;20151;-71
2021/01/22 11:35:34;;;;;;;1.23;0.30;;;3.50;99.90;;;;;;4920503;29;20135;-71
2021/01/22 11:38:01;;;;;;;0.32;0.20;;;3.60;99.90;;;;;;4926126;29;20075;-70
2021/01/22 11:40:28;;;;;;;0.90;0.20;;;3.60;99.90;;;;;;4932290;29;20048;-70
2021/01/22 11:42:55;;;;;;;0.82;0.40;;;3.60;99.90;;;;;;4924978;29;20098;-70
2021/01/22 11:45:22;;;;;;;0.43;0.32;;;3.60;99.90;;;;;;4928441;29;20055;-70
2021/01/22 11:47:48;;;;;;;1.80;0.40;;;3.30;99.90;;;;;;4932293;29;20486;-71
2021/01/22 11:50:15;;;;;;;1.75;0.38;;;3.40;99.90;;;;;;4931648;28;20465;-71
2021/01/22 11:52:41;;;;;;;0.90;0.30;;;3.40;99.90;;;;;;4931590;29;20498;-72
2021/01/22 11:55:08;;;;;;;0.65;0.30;;;3.50;99.90;;;;;;4931401;29;20059;-72
2021/01/22 11:57:34;;;;;;;0.82;0.35;;;3.60;99.90;;;;;;4930624;29;20110;-72
2021/01/22 12:00:03;;;;;;;0.98;0.30;;;3.50;99.90;;;;;;4931712;29;20099;-71
2021/01/22 12:02:29;;;;;;;1.42;0.38;;;3.40;99.90;;;;;;4945200;28;20447;-72
2021/01/22 12:04:56;;;;;;;1.33;0.30;;;3.40;99.90;;;;;;4945731;28;20054;-72
2021/01/22 12:07:22;;;;;;;1.75;0.45;;;3.40;99.90;;;;;;4930999;29;20358;-72
2021/01/22 12:09:49;;;;;;;0.25;0.20;;;3.30;99.90;;;;;;4930281;29;20051;-72
2021/01/22 12:12:15;;;;;;;0.95;0.40;;;3.50;99.90;;;;;;4931271;29;20088;-72
2021/01/22 12:14:43;;;;;;;0.25;0.20;;;3.60;99.90;;;;;;4945700;29;20081;-72
2021/01/22 12:17:09;;;;;;;0.90;0.20;;;3.70;99.90;;;;;;4944989;28;20048;-72
2021/01/22 12:19:35;;;;;;;1.48;0.30;;;3.50;99.90;;;;;;4930545;29;20063;-73
2021/01/22 12:22:02;;;;;;;1.98;0.25;;;3.60;99.90;;;;;;4929900;29;20079;-72
2021/01/22 12:24:28;;;;;;;0.90;0.30;;;3.60;99.90;;;;;;4945613;29;20094;-72
2021/01/22 12:26:55;;;;;;;0.30;0.20;;;3.70;99.90;;;;;;4929152;29;20055;-72
2021/01/22 12:29:21;;;;;;;0.30;0.20;;;3.70;99.90;;;;;;4934344;29;20510;-72
2021/01/22 12:31:47;;;;;;;0.93;0.35;;;3.60;99.90;;;;;;4931333;29;20051;-72
2021/01/22 12:34:15;;;;;;;1.55;0.40;;;3.60;99.90;;;;;;4931189;29;20072;-72
2021/01/22 12:36:41;;;;;;;1.48;0.30;;;3.60;99.90;;;;;;4928448;29;20399;-72
2021/01/22 12:39:07;;;;;;;3.58;0.40;;;3.60;99.90;;;;;;4930197;29;20150;-72
2021/01/22 12:41:34;;;;;;;1.60;0.40;;;3.70;99.90;;;;;;4930570;29;20130;-71
2021/01/22 12:44:01;;;;;;;0.90;0.30;;;3.70;99.90;;;;;;4926902;29;20056;-72
2021/01/22 12:46:28;;;;;;;2.03;0.30;;;3.70;99.90;;;;;;4928720;29;20079;-72
2021/01/22 12:48:55;;;;;;;0.85;0.30;;;3.90;99.90;;;;;;4929000;29;20075;-72
2021/01/22 12:51:21;;;;;;;1.65;0.30;;;3.90;99.90;;;;;;4926243;29;20059;-72
2021/01/22 12:53:47;;;;;;;1.13;0.25;;;3.80;99.90;;;;;;4932037;29;20095;-72
2021/01/22 12:56:14;;;;;;;0.90;0.30;;;4.00;99.90;;;;;;4945344;29;20052;-72
2021/01/22 12:58:40;;;;;;;1.40;0.20;;;3.80;99.90;;;;;;4930849;29;20118;-72
2021/01/22 13:01:06;;;;;;;0.52;0.30;;;3.80;99.90;;;;;;4930534;29;20047;-72